首页
METAR-TAF:

METAR-TAF

机场 :

贝尔法斯特国际机场

贝尔法斯特, 北爱尔兰

纬度: 54-39N, 经度: 006-13W, 海拔: 81米

当前天气观测

该预报发布于27分钟前的19:50 UTC
风速7节,风向西北
温度 5°C
湿度 81%
气压 1015 hPa
能见度10公里或以上
1500米以下无云,无积雨云

METAR: EGAA 021950Z 32007KT CAVOK 05/02 Q1015

时间: 21:17 (20:17 UTC)

预报

该预报发布于3小时和18分钟前的16:59 UTC
预报有效从02日的 18点(UTC)到 03日的 18点(UTC)
风速10节,风向西北
能见度10公里或以上
少量云层高于2000英尺
散云层高于4000英尺
几率 30% :
短暂存在
从 02日的 18点(UTC)到 03日的 18点(UTC)
能見度: 8000
多云层高于1400英尺
小阵雨
成为
从 03日的 03点(UTC)到 03日的 06点(UTC)
风速7节,风向西

TAF: EGAA 021659Z 0218/0318 32010KT 9999 FEW020 SCT040 PROB30 TEMPO 0218/0318 8000 -SHRA BKN014 BECMG 0303/0306 26007KT

超过4000个机场的气象观测和天气预报(METAR&TAF报告)。

可查询的气象台以黄色和红色小点在地图上表示。

将鼠标移到小点上方,可查看气象台名称。

然后点击查看天气观测和预报。

如需切换地图:点击带黑十字的绿色按钮放大地图;点击带横线的绿色按钮缩小地图;或者点击绿色箭头查看邻近地区的地图。


METAR-TAF: